createdAt,value
2018-07-22T00:01:15.608Z,100871.16
2018-07-22T00:03:45.000Z,100878.86
2018-07-22T00:06:14.710Z,100880.45
2018-07-22T00:08:44.516Z,100878.41
2018-07-22T00:11:14.077Z,100876.41
2018-07-22T00:13:43.541Z,100875.10
2018-07-22T00:16:13.026Z,100874.07
2018-07-22T00:18:42.566Z,100871.02
2018-07-22T00:21:12.177Z,100874.39
2018-07-22T00:23:43.178Z,100866.10
2018-07-22T00:26:12.725Z,100873.41
2018-07-22T00:28:42.420Z,100869.91
2018-07-22T00:31:12.127Z,100875.01
2018-07-22T00:33:41.667Z,100880.42
2018-07-22T00:36:11.447Z,100876.88
2018-07-22T00:38:41.533Z,100874.64
2018-07-22T00:41:11.370Z,100873.90
2018-07-22T00:43:40.975Z,100873.91
2018-07-22T00:46:11.368Z,100867.81
2018-07-22T00:48:40.876Z,100874.89
2018-07-22T00:51:10.728Z,100870.75
2018-07-22T00:53:40.515Z,100870.33
2018-07-22T00:56:10.643Z,100869.16
2018-07-22T00:58:40.580Z,100865.06
2018-07-22T01:01:10.778Z,100867.46
2018-07-22T01:03:40.944Z,100856.23
2018-07-22T01:06:10.839Z,100857.26
2018-07-22T01:08:40.517Z,100860.20
2018-07-22T01:11:10.077Z,100856.97
2018-07-22T01:13:40.066Z,100860.97
2018-07-22T01:16:10.005Z,100861.81
2018-07-22T01:18:39.795Z,100864.46
2018-07-22T01:21:09.693Z,100865.33
2018-07-22T01:23:40.204Z,100867.27
2018-07-22T01:26:10.317Z,100868.13
2018-07-22T01:28:41.114Z,100863.72
2018-07-22T01:31:10.699Z,100865.13
2018-07-22T01:33:40.311Z,100867.09
2018-07-22T01:36:11.230Z,100872.62
2018-07-22T01:38:40.977Z,100866.62
2018-07-22T01:41:10.890Z,100871.92
2018-07-22T01:43:41.077Z,100870.56
2018-07-22T01:46:10.992Z,100867.46
2018-07-22T01:48:40.940Z,100866.08
2018-07-22T01:51:10.714Z,100857.53
2018-07-22T01:53:40.374Z,100856.12
2018-07-22T01:56:09.947Z,100853.76
2018-07-22T01:58:39.977Z,100853.52
2018-07-22T02:01:09.555Z,100849.22
2018-07-22T02:03:39.010Z,100849.73
2018-07-22T02:06:09.375Z,100846.49
2018-07-22T02:08:38.943Z,100841.64
2018-07-22T02:11:08.528Z,100843.98
2018-07-22T02:13:38.723Z,100837.42
2018-07-22T02:16:08.185Z,100846.27
2018-07-22T02:18:37.624Z,100839.28
2018-07-22T02:21:07.127Z,100840.45
2018-07-22T02:23:37.647Z,100839.02
2018-07-22T02:26:07.374Z,100843.61
2018-07-22T02:28:37.931Z,100843.95
2018-07-22T02:31:08.640Z,100841.66
2018-07-22T02:33:39.915Z,100842.95
2018-07-22T02:36:09.594Z,100843.75
2018-07-22T02:38:39.447Z,100852.24
2018-07-22T02:41:08.990Z,100850.55
2018-07-22T02:43:38.727Z,100850.27
2018-07-22T02:46:08.330Z,100855.45
2018-07-22T02:48:38.034Z,100851.12
2018-07-22T02:51:07.544Z,100849.27
2018-07-22T02:53:37.331Z,100849.88
2018-07-22T02:56:06.967Z,100844.91
2018-07-22T02:58:37.091Z,100840.47
2018-07-22T03:01:07.307Z,100832.86
2018-07-22T03:03:37.561Z,100828.75
2018-07-22T03:06:07.420Z,100819.20
2018-07-22T03:08:38.360Z,100825.92
2018-07-22T03:11:08.340Z,100822.50
2018-07-22T03:13:38.292Z,100820.81
2018-07-22T03:16:10.495Z,100824.55
2018-07-22T03:18:41.093Z,100820.29
2018-07-22T03:21:10.665Z,100833.70
2018-07-22T03:23:40.326Z,100820.58
2018-07-22T03:26:09.907Z,100826.16
2018-07-22T03:28:39.616Z,100821.94
2018-07-22T03:31:11.009Z,100821.13
2018-07-22T03:33:40.779Z,100824.37
2018-07-22T03:36:10.421Z,100824.05
2018-07-22T03:38:40.068Z,100819.83
2018-07-22T03:41:09.746Z,100821.70
2018-07-22T03:43:39.443Z,100822.32
2018-07-22T03:46:09.947Z,100819.97
2018-07-22T03:48:39.445Z,100810.95
2018-07-22T03:51:09.052Z,100812.98
2018-07-22T03:53:38.969Z,100815.28
2018-07-22T03:56:09.290Z,100822.17
2018-07-22T03:58:39.005Z,100820.81
2018-07-22T04:01:08.475Z,100822.91
2018-07-22T04:03:37.981Z,100822.11
2018-07-22T04:06:08.137Z,100828.84
2018-07-22T04:08:37.535Z,100832.28
2018-07-22T04:11:08.445Z,100828.77
2018-07-22T04:13:38.135Z,100828.27
2018-07-22T04:16:07.576Z,100821.81
2018-07-22T04:18:43.857Z,100827.91
2018-07-22T04:21:13.386Z,100825.92
2018-07-22T04:23:43.133Z,100818.44
2018-07-22T04:26:12.649Z,100823.85
2018-07-22T04:28:42.456Z,100824.52
2018-07-22T04:31:12.364Z,100825.54
2018-07-22T04:33:42.013Z,100819.95
2018-07-22T04:36:11.705Z,100822.00
2018-07-22T04:38:41.346Z,100821.47
2018-07-22T04:41:11.192Z,100824.03
2018-07-22T04:43:40.778Z,100821.50
2018-07-22T04:46:10.343Z,100831.36
2018-07-22T04:48:40.462Z,100822.17
2018-07-22T04:51:10.687Z,100833.05
2018-07-22T04:53:40.782Z,100828.47
2018-07-22T04:56:11.495Z,100828.59
2018-07-22T04:58:42.168Z,100830.31
2018-07-22T05:01:11.898Z,100830.98
2018-07-22T05:03:43.116Z,100833.69
2018-07-22T05:06:12.779Z,100832.38
2018-07-22T05:08:42.338Z,100826.27
2018-07-22T05:11:13.576Z,100829.81
2018-07-22T05:13:43.452Z,100833.38
2018-07-22T05:16:12.920Z,100829.62
2018-07-22T05:18:43.074Z,100830.95
2018-07-22T05:21:12.743Z,100822.41
2018-07-22T05:23:42.704Z,100823.75
2018-07-22T05:26:12.347Z,100825.92
2018-07-22T05:28:42.946Z,100813.80
2018-07-22T05:31:13.726Z,100815.05
2018-07-22T05:33:43.149Z,100811.28
2018-07-22T05:36:12.599Z,100812.52
2018-07-22T05:38:42.664Z,100815.41
2018-07-22T05:41:12.196Z,100815.39
2018-07-22T05:43:42.125Z,100814.25
2018-07-22T05:46:11.668Z,100815.11
2018-07-22T05:48:41.589Z,100818.84
2018-07-22T05:51:11.016Z,100818.78
2018-07-22T05:53:41.774Z,100822.20
2018-07-22T05:56:11.560Z,100824.13
2018-07-22T05:58:41.198Z,100828.41
2018-07-22T06:01:10.749Z,100824.36
2018-07-22T06:03:40.278Z,100819.11
2018-07-22T06:06:09.916Z,100819.86
2018-07-22T06:08:40.091Z,100822.86
2018-07-22T06:11:09.761Z,100818.38
2018-07-22T06:13:39.392Z,100820.47
2018-07-22T06:16:09.475Z,100815.02
2018-07-22T06:18:39.108Z,100812.38
2018-07-22T06:21:08.789Z,100810.92
2018-07-22T06:23:39.289Z,100811.12
2018-07-22T06:26:09.189Z,100814.03
2018-07-22T06:28:38.948Z,100810.08
2018-07-22T06:31:08.556Z,100809.39
2018-07-22T06:33:38.262Z,100808.70
2018-07-22T06:36:08.894Z,100810.06
2018-07-22T06:38:38.546Z,100803.01
2018-07-22T06:41:08.024Z,100808.10
2018-07-22T06:43:38.587Z,100801.42
2018-07-22T06:46:08.478Z,100801.53
2018-07-22T06:48:38.126Z,100799.77
2018-07-22T06:51:07.749Z,100792.32
2018-07-22T06:53:37.363Z,100803.77
2018-07-22T06:56:06.882Z,100796.47
2018-07-22T06:58:36.439Z,100805.81
2018-07-22T07:01:06.278Z,100807.52
2018-07-22T07:03:35.678Z,100810.50
2018-07-22T07:06:05.288Z,100813.33
2018-07-22T07:08:35.235Z,100814.55
2018-07-22T07:11:04.705Z,100812.48
2018-07-22T07:13:34.087Z,100813.16
2018-07-22T07:16:03.741Z,100819.48
2018-07-22T07:18:32.982Z,100820.83
2018-07-22T07:21:03.086Z,100823.50
2018-07-22T07:23:32.496Z,100824.98
2018-07-22T07:26:01.740Z,100824.23
2018-07-22T07:28:31.103Z,100824.03
2018-07-22T07:31:00.576Z,100821.11
2018-07-22T07:33:30.046Z,100824.48
2018-07-22T07:36:01.057Z,100830.73
2018-07-22T07:38:30.383Z,100832.91
2018-07-22T07:40:59.642Z,100826.05
2018-07-22T07:43:29.712Z,100832.41
2018-07-22T07:45:59.078Z,100827.89
2018-07-22T07:48:28.358Z,100829.14
2018-07-22T07:50:58.490Z,100831.45
2018-07-22T07:53:28.301Z,100832.66
2018-07-22T07:55:57.722Z,100833.48
2018-07-22T07:58:27.490Z,100831.03
2018-07-22T08:00:56.785Z,100827.51
2018-07-22T08:03:26.139Z,100828.23
2018-07-22T08:05:56.084Z,100830.24
2018-07-22T08:08:25.324Z,100836.76
2018-07-22T08:10:54.660Z,100832.84
2018-07-22T08:13:24.167Z,100838.86
2018-07-22T08:15:53.697Z,100841.42
2018-07-22T08:18:23.252Z,100839.94
2018-07-22T08:20:52.936Z,100838.13
2018-07-22T08:23:23.263Z,100837.88
2018-07-22T08:25:52.624Z,100840.52
2018-07-22T08:28:33.202Z,100841.19
2018-07-22T08:31:02.554Z,100839.36
2018-07-22T08:33:31.791Z,100841.35
2018-07-22T08:36:01.147Z,100843.06
2018-07-22T08:38:30.412Z,100846.77
2018-07-22T08:41:00.830Z,100841.77
2018-07-22T08:43:30.748Z,100842.20
2018-07-22T08:45:59.953Z,100844.38
2018-07-22T08:48:29.142Z,100846.10
2018-07-22T08:50:58.421Z,100845.79
2018-07-22T08:53:29.513Z,100843.43
2018-07-22T08:55:58.757Z,100841.16
2018-07-22T08:58:28.595Z,100849.56
2018-07-22T09:00:57.826Z,100853.53
2018-07-22T09:03:27.162Z,100856.27
2018-07-22T09:05:56.578Z,100859.14
2018-07-22T09:08:25.853Z,100854.30
2018-07-22T09:10:55.283Z,100851.11
2018-07-22T09:13:24.574Z,100859.13
2018-07-22T09:15:53.813Z,100859.22
2018-07-22T09:18:23.081Z,100865.28
2018-07-22T09:20:52.627Z,100869.25
2018-07-22T09:23:21.884Z,100866.13
2018-07-22T09:25:51.206Z,100869.92
2018-07-22T09:28:20.645Z,100860.00
2018-07-22T09:30:50.114Z,100864.98
2018-07-22T09:33:19.671Z,100862.55
2018-07-22T09:35:49.453Z,100874.16
2018-07-22T09:38:18.887Z,100878.89
2018-07-22T09:40:48.492Z,100873.09
2018-07-22T09:43:17.906Z,100878.13
2018-07-22T09:45:47.615Z,100881.11
2018-07-22T09:48:17.621Z,100872.91
2018-07-22T09:50:47.195Z,100875.72
2018-07-22T09:53:18.160Z,100870.61
2018-07-22T09:55:48.489Z,100871.31
2018-07-22T09:58:17.939Z,100875.86
2018-07-22T10:00:55.257Z,100873.95
2018-07-22T10:03:25.565Z,100877.87
2018-07-22T10:05:54.929Z,100877.87
2018-07-22T10:08:24.457Z,100884.72
2018-07-22T10:10:54.795Z,100882.92
2018-07-22T10:13:24.176Z,100880.36
2018-07-22T10:15:53.635Z,100885.81
2018-07-22T10:18:23.091Z,100880.69
2018-07-22T10:20:52.358Z,100884.55
2018-07-22T10:23:22.576Z,100875.64
2018-07-22T10:25:52.929Z,100876.42
2018-07-22T10:28:22.197Z,100879.28
2018-07-22T10:30:54.209Z,100873.42
2018-07-22T10:33:23.598Z,100881.78
2018-07-22T10:35:53.116Z,100878.27
2018-07-22T10:38:22.766Z,100883.70
2018-07-22T10:40:52.030Z,100871.55
2018-07-22T10:43:21.595Z,100875.35
2018-07-22T10:45:51.227Z,100879.97
2018-07-22T10:48:20.788Z,100881.37
2018-07-22T10:50:50.092Z,100881.15
2018-07-22T10:53:20.914Z,100888.77
2018-07-22T10:55:51.339Z,100881.69
2018-07-22T10:58:20.848Z,100877.36
2018-07-22T11:00:50.722Z,100883.83
2018-07-22T11:03:20.107Z,100878.09
2018-07-22T11:05:49.846Z,100885.28
2018-07-22T11:08:19.661Z,100887.59
2018-07-22T11:10:49.151Z,100891.36
2018-07-22T11:13:18.732Z,100884.63
2018-07-22T11:15:48.675Z,100891.02
2018-07-22T11:18:18.321Z,100887.05
2018-07-22T11:20:48.089Z,100889.64
2018-07-22T11:23:18.218Z,100887.58
2018-07-22T11:25:48.144Z,100885.91
2018-07-22T11:28:18.266Z,100887.00
2018-07-22T11:30:47.946Z,100887.19
2018-07-22T11:33:18.138Z,100889.09
2018-07-22T11:35:47.731Z,100886.11
2018-07-22T11:38:23.512Z,100884.83
2018-07-22T11:40:52.924Z,100885.70
2018-07-22T11:43:22.347Z,100888.34
2018-07-22T11:45:52.286Z,100896.36
2018-07-22T11:48:21.969Z,100892.63
2018-07-22T11:50:51.243Z,100891.70
2018-07-22T11:53:20.615Z,100892.80
2018-07-22T11:55:50.792Z,100895.22
2018-07-22T11:58:20.063Z,100896.73
2018-07-22T12:00:50.671Z,100891.75
2018-07-22T12:03:21.008Z,100896.30
2018-07-22T12:05:50.983Z,100895.60
2018-07-22T12:08:20.341Z,100888.26
2018-07-22T12:10:49.807Z,100882.39
2018-07-22T12:13:20.095Z,100886.20
2018-07-22T12:15:49.667Z,100897.97
2018-07-22T12:18:19.275Z,100896.28
2018-07-22T12:20:49.298Z,100893.95
2018-07-22T12:23:19.257Z,100892.70
2018-07-22T12:25:49.413Z,100893.09
2018-07-22T12:28:19.970Z,100900.89
2018-07-22T12:30:49.811Z,100898.61
2018-07-22T12:33:19.708Z,100895.44
2018-07-22T12:35:50.140Z,100893.76
2018-07-22T12:38:19.722Z,100888.88
2018-07-22T12:40:50.451Z,100896.53
2018-07-22T12:43:20.939Z,100893.92
2018-07-22T12:45:50.721Z,100887.20
2018-07-22T12:48:25.646Z,100882.77
2018-07-22T12:50:55.102Z,100884.20
2018-07-22T12:53:24.471Z,100891.84
2018-07-22T12:55:54.432Z,100893.58
2018-07-22T12:58:23.861Z,100892.16
2018-07-22T13:00:53.358Z,100883.97
2018-07-22T13:03:23.500Z,100885.75
2018-07-22T13:05:53.697Z,100887.72
2018-07-22T13:08:23.002Z,100880.62
2018-07-22T13:10:52.552Z,100891.63
2018-07-22T13:13:21.938Z,100885.74
2018-07-22T13:15:51.737Z,100884.52
2018-07-22T13:18:21.791Z,100885.59
2018-07-22T13:20:51.119Z,100889.58
2018-07-22T13:23:20.747Z,100888.48
2018-07-22T13:25:50.409Z,100892.13
2018-07-22T13:28:20.303Z,100884.99
2018-07-22T13:30:50.148Z,100875.72
2018-07-22T13:33:20.495Z,100880.81
2018-07-22T13:35:49.773Z,100862.15
2018-07-22T13:38:19.670Z,100876.97
2018-07-22T13:40:49.239Z,100871.23
2018-07-22T13:43:20.432Z,100876.31
2018-07-22T13:45:50.345Z,100866.81
2018-07-22T13:48:20.778Z,100866.66
2018-07-22T13:50:50.515Z,100868.18
2018-07-22T13:53:20.415Z,100875.46
2018-07-22T13:55:50.116Z,100871.59
2018-07-22T13:58:19.953Z,100883.65
2018-07-22T14:00:49.670Z,100877.80
2018-07-22T14:03:20.594Z,100882.11
2018-07-22T14:05:50.377Z,100884.82
2018-07-22T14:08:20.776Z,100896.48
2018-07-22T14:10:50.266Z,100899.87
2018-07-22T14:13:19.854Z,100893.92
2018-07-22T14:15:49.451Z,100887.16
2018-07-22T14:18:18.961Z,100897.38
2018-07-22T14:20:48.369Z,100896.69
2018-07-22T14:23:18.596Z,100899.45
2018-07-22T14:25:48.334Z,100903.00
2018-07-22T14:28:17.721Z,100915.38
2018-07-22T14:30:47.924Z,100908.02
2018-07-22T14:33:17.548Z,100909.45
2018-07-22T14:35:47.172Z,100909.26
2018-07-22T14:38:17.677Z,100908.10
2018-07-22T14:40:48.107Z,100910.95
2018-07-22T14:43:17.727Z,100911.17
2018-07-22T14:45:47.250Z,100904.14
2018-07-22T14:48:17.604Z,100910.20
2018-07-22T14:50:47.718Z,100915.73
2018-07-22T14:53:17.734Z,100908.81
2018-07-22T14:55:47.250Z,100919.38
2018-07-22T14:58:17.417Z,100916.67
2018-07-22T15:00:47.524Z,100922.18
2018-07-22T15:03:18.141Z,100916.84
2018-07-22T15:05:48.298Z,100923.23
2018-07-22T15:08:19.126Z,100922.38
2018-07-22T15:10:48.696Z,100924.78
2018-07-22T15:13:18.819Z,100928.36
2018-07-22T15:15:48.308Z,100927.74
2018-07-22T15:18:18.068Z,100931.92
2018-07-22T15:20:48.058Z,100928.65
2018-07-22T15:23:19.604Z,100933.38
2018-07-22T15:25:51.080Z,100930.63
2018-07-22T15:28:20.627Z,100935.83
2018-07-22T15:30:50.884Z,100934.77
2018-07-22T15:33:20.230Z,100942.55
2018-07-22T15:35:50.246Z,100933.19
2018-07-22T15:38:21.413Z,100933.44
2018-07-22T15:40:51.185Z,100933.95
2018-07-22T15:43:20.645Z,100945.80
2018-07-22T15:45:49.982Z,100949.94
2018-07-22T15:48:20.474Z,100954.20
2018-07-22T15:50:49.926Z,100956.46
2018-07-22T15:53:19.486Z,100946.70
2018-07-22T15:55:49.370Z,100959.13
2018-07-22T15:58:19.533Z,100959.44
2018-07-22T16:00:49.356Z,100958.09
2018-07-22T16:03:21.685Z,100959.36
2018-07-22T16:05:51.228Z,100957.14
2018-07-22T16:08:21.101Z,100968.16
2018-07-22T16:10:51.015Z,100956.17
2018-07-22T16:13:20.654Z,100967.97
2018-07-22T16:15:51.531Z,100954.30
2018-07-22T16:18:21.513Z,100962.34
2018-07-22T16:20:52.339Z,100961.36
2018-07-22T16:23:21.805Z,100966.84
2018-07-22T16:25:51.596Z,100969.73
2018-07-22T16:28:21.455Z,100969.05
2018-07-22T16:30:51.116Z,100968.34
2018-07-22T16:33:20.940Z,100965.98
2018-07-22T16:35:50.638Z,100975.65
2018-07-22T16:38:20.185Z,100968.73
2018-07-22T16:40:50.378Z,100970.27
2018-07-22T16:43:19.840Z,100973.87
2018-07-22T16:45:49.810Z,100969.25
2018-07-22T16:48:20.185Z,100974.25
2018-07-22T16:50:49.945Z,100974.35
2018-07-22T16:53:20.108Z,100976.46
2018-07-22T16:55:50.517Z,100971.54
2018-07-22T16:58:20.662Z,100971.52
2018-07-22T17:00:50.593Z,100970.56
2018-07-22T17:03:22.673Z,100977.98
2018-07-22T17:05:52.650Z,100976.84
2018-07-22T17:08:22.198Z,100981.30
2018-07-22T17:10:52.279Z,100984.75
2018-07-22T17:13:22.986Z,100991.64
2018-07-22T17:15:52.565Z,100990.13
2018-07-22T17:18:22.241Z,100989.59
2018-07-22T17:20:51.900Z,100994.20
2018-07-22T17:23:21.829Z,100996.48
2018-07-22T17:25:51.827Z,100996.13
2018-07-22T17:28:21.799Z,101002.86
2018-07-22T17:30:51.780Z,101002.39
2018-07-22T17:33:22.369Z,101009.03
2018-07-22T17:35:51.706Z,101006.78
2018-07-22T17:38:21.258Z,101018.48
2018-07-22T17:40:50.620Z,101013.33
2018-07-22T17:43:20.172Z,101022.28
2018-07-22T17:45:49.986Z,101025.20
2018-07-22T17:48:20.162Z,101021.34
2018-07-22T17:50:50.279Z,101020.89
2018-07-22T17:53:20.962Z,101025.76
2018-07-22T17:55:50.689Z,101016.89
2018-07-22T17:58:20.799Z,101027.81
2018-07-22T18:00:51.169Z,101027.33
2018-07-22T18:03:27.397Z,101033.22
2018-07-22T18:05:57.640Z,101030.20
2018-07-22T18:08:27.135Z,101019.17
2018-07-22T18:10:57.172Z,101034.38
2018-07-22T18:13:26.647Z,101027.37
2018-07-22T18:15:56.263Z,101034.36
2018-07-22T18:18:26.020Z,101035.41
2018-07-22T18:20:56.927Z,101032.42
2018-07-22T18:23:26.382Z,101037.95
2018-07-22T18:25:55.829Z,101042.94
2018-07-22T18:28:25.231Z,101036.52
2018-07-22T18:30:54.798Z,101046.62
2018-07-22T18:33:26.019Z,101044.38
2018-07-22T18:35:56.391Z,101048.01
2018-07-22T18:38:25.951Z,101046.33
2018-07-22T18:40:55.269Z,101047.23
2018-07-22T18:43:25.705Z,101046.52
2018-07-22T18:45:55.207Z,101045.83
2018-07-22T18:48:28.478Z,101049.44
2018-07-22T18:50:57.855Z,101051.31
2018-07-22T18:53:27.246Z,101048.66
2018-07-22T18:55:56.750Z,101048.86
2018-07-22T18:58:26.477Z,101047.08
2018-07-22T19:00:56.228Z,101048.81
2018-07-22T19:03:25.885Z,101057.08
2018-07-22T19:05:55.446Z,101059.30
2018-07-22T19:08:25.097Z,101061.59
2018-07-22T19:10:55.482Z,101062.40
2018-07-22T19:13:25.129Z,101071.69
2018-07-22T19:15:55.717Z,101070.73
2018-07-22T19:18:25.474Z,101074.37
2018-07-22T19:20:54.867Z,101072.04
2018-07-22T19:23:24.397Z,101077.84
2018-07-22T19:25:54.039Z,101081.13
2018-07-22T19:28:24.957Z,101083.20
2018-07-22T19:30:54.526Z,101092.04
2018-07-22T19:33:24.920Z,101094.10
2018-07-22T19:35:54.588Z,101096.65
2018-07-22T19:38:24.429Z,101097.50
2018-07-22T19:40:56.056Z,101093.08
2018-07-22T19:43:25.433Z,101092.76
2018-07-22T19:45:54.978Z,101094.97
2018-07-22T19:48:25.161Z,101098.52
2018-07-22T19:50:54.572Z,101100.59
2018-07-22T19:53:24.142Z,101102.95
2018-07-22T19:55:53.902Z,101111.44
2018-07-22T19:59:26.392Z,101106.66
2018-07-22T20:01:56.405Z,101111.88
2018-07-22T20:04:25.777Z,101106.97
2018-07-22T20:06:55.073Z,101113.90
2018-07-22T20:09:25.607Z,101122.55
2018-07-22T20:11:55.124Z,101121.67
2018-07-22T20:14:26.106Z,101119.13
2018-07-22T20:16:55.831Z,101116.42
2018-07-22T20:19:26.303Z,101121.30
2018-07-22T20:21:56.052Z,101121.78
2018-07-22T20:24:25.657Z,101125.85
2018-07-22T20:26:55.017Z,101136.53
2018-07-22T20:29:25.139Z,101131.27
2018-07-22T20:31:54.663Z,101130.42
2018-07-22T20:34:24.121Z,101131.57
2018-07-22T20:36:53.580Z,101128.69
2018-07-22T20:39:23.557Z,101134.08
2018-07-22T20:41:53.034Z,101141.69
2018-07-22T20:44:25.393Z,101141.83
2018-07-22T20:46:55.088Z,101145.70
2018-07-22T20:49:24.571Z,101155.80
2018-07-22T20:51:54.982Z,101156.81
2018-07-22T20:54:24.810Z,101154.25
2018-07-22T20:56:54.260Z,101159.11
2018-07-22T20:59:25.456Z,101155.00
2018-07-22T21:01:54.857Z,101154.98
2018-07-22T21:04:24.152Z,101156.27
2018-07-22T21:06:54.144Z,101157.27
2018-07-22T21:09:23.658Z,101155.52
2018-07-22T21:13:08.245Z,101154.33
2018-07-22T21:15:39.059Z,101155.61
2018-07-22T21:18:13.282Z,101161.70
2018-07-22T21:20:44.341Z,101162.20
2018-07-22T21:23:20.681Z,101164.17
2018-07-22T21:25:50.152Z,101159.77
2018-07-22T21:28:19.561Z,101163.64
2018-07-22T21:30:48.932Z,101156.34
2018-07-22T21:33:18.725Z,101155.78
2018-07-22T21:35:48.408Z,101159.37
2018-07-22T21:38:17.820Z,101158.13
2018-07-22T21:40:47.429Z,101164.71
2018-07-22T21:43:17.239Z,101161.31
2018-07-22T21:45:46.756Z,101163.30
2018-07-22T21:48:16.350Z,101162.23
2018-07-22T21:50:45.851Z,101168.63
2018-07-22T21:53:17.267Z,101171.09
2018-07-22T21:55:47.557Z,101171.91
2018-07-22T21:58:17.113Z,101173.52
2018-07-22T22:00:46.968Z,101172.13
2018-07-22T22:03:16.940Z,101169.36
2018-07-22T22:05:46.780Z,101172.70
2018-07-22T22:08:16.689Z,101180.44
2018-07-22T22:10:47.765Z,101175.65
2018-07-22T22:13:18.645Z,101171.91
2018-07-22T22:15:48.693Z,101176.59
2018-07-22T22:18:18.404Z,101177.59
2018-07-22T22:20:47.914Z,101177.05
2018-07-22T22:23:17.512Z,101183.16
2018-07-22T22:25:47.074Z,101177.20
2018-07-22T22:28:16.620Z,101181.77
2018-07-22T22:30:46.695Z,101183.87
2018-07-22T22:33:16.182Z,101184.22
2018-07-22T22:35:46.833Z,101184.91
2018-07-22T22:38:17.100Z,101185.87
2018-07-22T22:40:46.304Z,101187.23
2018-07-22T22:43:15.701Z,101188.16
2018-07-22T22:45:45.189Z,101182.71
2018-07-22T22:48:14.739Z,101186.27
2018-07-22T22:50:44.297Z,101183.02
2018-07-22T22:53:14.013Z,101190.13
2018-07-22T22:55:46.365Z,101190.37
2018-07-22T22:58:26.816Z,101193.72
2018-07-22T23:00:57.970Z,101200.84
2018-07-22T23:03:27.737Z,101197.33
2018-07-22T23:05:57.025Z,101192.02
2018-07-22T23:08:27.555Z,101191.02
2018-07-22T23:10:56.824Z,101199.44
2018-07-22T23:13:26.291Z,101194.88
2018-07-22T23:15:55.835Z,101194.77
2018-07-22T23:18:25.133Z,101197.13
2018-07-22T23:20:54.398Z,101193.18
2018-07-22T23:23:24.533Z,101198.51
2018-07-22T23:25:53.941Z,101191.70
2018-07-22T23:28:23.277Z,101195.56
2018-07-22T23:30:53.082Z,101202.83
2018-07-22T23:33:22.312Z,101192.38
2018-07-22T23:35:51.609Z,101194.63
2018-07-22T23:38:21.362Z,101191.80
2018-07-22T23:40:50.605Z,101196.70
2018-07-22T23:43:19.879Z,101197.11
2018-07-22T23:45:50.235Z,101193.67
2018-07-22T23:48:19.633Z,101187.36
2018-07-22T23:50:49.358Z,101196.97
2018-07-22T23:53:18.765Z,101195.42
2018-07-22T23:55:49.622Z,101193.78
2018-07-22T23:58:19.002Z,101196.83
